createdAt,value
2022-09-16T00:01:35.161Z,0.95
2022-09-16T00:06:37.025Z,1.08
2022-09-16T00:11:38.889Z,0.98
2022-09-16T00:16:40.749Z,0.73
2022-09-16T00:21:42.765Z,0.93
2022-09-16T00:26:44.636Z,0.90
2022-09-16T00:31:46.648Z,0.52
2022-09-16T00:36:48.513Z,0.80
2022-09-16T00:41:50.668Z,1.05
2022-09-16T00:46:54.094Z,1.23
2022-09-16T00:52:05.781Z,0.93
2022-09-16T00:57:11.008Z,1.25
2022-09-16T01:02:17.918Z,1.27
2022-09-16T01:07:44.508Z,1.10
2022-09-16T01:12:49.838Z,1.00
2022-09-16T01:18:06.759Z,1.20
2022-09-16T01:23:56.511Z,1.17
2022-09-16T01:29:10.336Z,0.88
2022-09-16T01:34:36.839Z,0.70
2022-09-16T01:39:44.651Z,0.88
2022-09-16T01:45:03.191Z,1.00
2022-09-16T01:50:30.449Z,1.33
2022-09-16T01:55:46.889Z,0.70
2022-09-16T02:00:52.100Z,1.20
2022-09-16T02:05:58.631Z,0.70
2022-09-16T02:11:04.949Z,0.85
2022-09-16T02:16:39.761Z,0.90
2022-09-16T02:21:45.815Z,0.77
2022-09-16T02:26:56.602Z,1.10
2022-09-16T02:37:08.385Z,1.00
2022-09-16T02:42:10.693Z,1.20
2022-09-16T02:47:31.676Z,1.17
2022-09-16T02:53:02.571Z,1.42
2022-09-16T02:58:07.953Z,1.60
2022-09-16T03:03:10.105Z,1.20
2022-09-16T03:08:11.990Z,1.25
2022-09-16T03:13:27.371Z,1.17
2022-09-16T03:18:41.315Z,1.20
2022-09-16T03:23:52.310Z,1.40
2022-09-16T03:29:09.851Z,1.52
2022-09-16T03:34:21.412Z,1.63
2022-09-16T03:39:23.399Z,1.30
2022-09-16T03:44:32.850Z,1.27
2022-09-16T03:49:35.554Z,1.10
2022-09-16T03:54:39.109Z,1.55
2022-09-16T03:59:42.120Z,1.52
2022-09-16T04:04:43.917Z,1.20
2022-09-16T04:09:45.817Z,1.27
2022-09-16T04:14:47.623Z,1.10
2022-09-16T04:19:50.071Z,1.33
2022-09-16T04:24:51.930Z,1.70
2022-09-16T04:29:53.711Z,1.67
2022-09-16T04:34:55.509Z,1.60
2022-09-16T04:40:01.104Z,1.38
2022-09-16T04:45:06.889Z,1.35
2022-09-16T04:50:09.854Z,1.95
2022-09-16T04:55:11.701Z,1.55
2022-09-16T05:00:13.976Z,1.80
2022-09-16T05:05:17.331Z,1.20
2022-09-16T05:10:19.248Z,1.45
2022-09-16T05:15:21.220Z,1.33
2022-09-16T05:20:23.335Z,1.08
2022-09-16T05:25:25.165Z,1.25
2022-09-16T05:30:26.983Z,1.00
2022-09-16T05:35:28.842Z,1.15
2022-09-16T05:40:30.713Z,1.17
2022-09-16T05:45:32.810Z,1.50
2022-09-16T05:50:34.675Z,1.60
2022-09-16T05:55:36.470Z,1.30
2022-09-16T06:00:38.250Z,1.63
2022-09-16T06:05:45.017Z,1.70
2022-09-16T06:10:47.559Z,2.30
2022-09-16T06:15:51.527Z,1.73
2022-09-16T06:20:53.653Z,2.33
2022-09-16T06:26:10.131Z,1.77
2022-09-16T06:31:14.858Z,2.53
2022-09-16T06:36:19.419Z,2.13
2022-09-16T06:41:22.295Z,1.63
2022-09-16T06:46:27.228Z,2.03
2022-09-16T06:51:31.365Z,1.52
2022-09-16T06:56:37.940Z,2.20
2022-09-16T07:01:40.330Z,1.70
2022-09-16T07:07:08.158Z,1.67
2022-09-16T07:12:05.120Z,1.70
2022-09-16T07:17:09.151Z,1.50
2022-09-16T07:22:11.618Z,1.50
2022-09-16T07:27:13.926Z,1.58
2022-09-16T07:32:15.887Z,1.20
2022-09-16T07:37:19.597Z,1.20
2022-09-16T07:42:23.691Z,1.33
2022-09-16T07:47:25.569Z,1.13
2022-09-16T07:52:29.537Z,1.05
2022-09-16T07:57:31.333Z,1.23
2022-09-16T08:02:33.197Z,1.15
2022-09-16T08:07:35.530Z,0.90
2022-09-16T08:12:37.370Z,1.00
2022-09-16T08:17:39.243Z,0.98
2022-09-16T08:22:41.078Z,0.70
2022-09-16T08:27:42.899Z,0.75
2022-09-16T08:32:44.792Z,0.65
2022-09-16T08:37:50.033Z,0.55
2022-09-16T08:43:16.603Z,0.68
2022-09-16T08:48:43.957Z,0.65
2022-09-16T08:53:45.692Z,0.55
2022-09-16T08:58:54.060Z,0.60
2022-09-16T09:03:56.530Z,0.40
2022-09-16T09:09:36.318Z,0.52
2022-09-16T09:15:00.459Z,0.77
2022-09-16T09:20:29.456Z,0.57
2022-09-16T09:25:49.122Z,0.30
2022-09-16T09:31:21.409Z,0.52
2022-09-16T09:36:32.109Z,0.60
2022-09-16T09:41:46.687Z,0.40
2022-09-16T09:46:54.661Z,0.55
2022-09-16T09:52:17.409Z,0.50
2022-09-16T09:57:25.226Z,0.50
2022-09-16T10:02:27.235Z,0.85
2022-09-16T10:07:29.474Z,0.60
2022-09-16T10:12:36.323Z,0.73
2022-09-16T10:17:38.210Z,0.50
2022-09-16T10:22:40.060Z,0.75
2022-09-16T10:27:42.130Z,0.70
2022-09-16T10:33:02.172Z,0.52
2022-09-16T10:38:17.510Z,0.67
2022-09-16T10:43:19.509Z,0.40
2022-09-16T10:48:26.462Z,0.60
2022-09-16T10:53:44.094Z,0.30
2022-09-16T10:58:46.604Z,0.52
2022-09-16T11:03:51.109Z,0.35
2022-09-16T11:09:08.191Z,0.68
2022-09-16T11:14:37.754Z,0.80
2022-09-16T11:20:01.222Z,0.60
2022-09-16T11:25:08.885Z,0.80
2022-09-16T11:30:18.165Z,0.63
2022-09-16T11:35:46.180Z,1.10
2022-09-16T11:41:03.891Z,1.35
2022-09-16T11:46:16.197Z,1.10
2022-09-16T11:51:51.149Z,0.85
2022-09-16T11:57:00.717Z,0.75
2022-09-16T12:02:39.740Z,0.60
2022-09-16T12:07:51.296Z,0.70
2022-09-16T12:12:59.126Z,0.50
2022-09-16T12:18:18.301Z,0.30
2022-09-16T12:23:26.791Z,0.40
2022-09-16T12:28:50.221Z,0.52
2022-09-16T12:34:12.034Z,0.63
2022-09-16T12:39:14.157Z,0.40
2022-09-16T12:44:34.394Z,0.65
2022-09-16T12:50:00.854Z,0.50
2022-09-16T12:55:38.210Z,0.40
2022-09-16T13:00:53.804Z,0.50
2022-09-16T13:05:58.504Z,0.60
2022-09-16T13:11:40.004Z,0.40
2022-09-16T13:16:37.118Z,0.60
2022-09-16T13:21:44.646Z,0.60
2022-09-16T13:26:46.895Z,0.40
2022-09-16T13:31:49.042Z,0.55
2022-09-16T13:36:51.002Z,0.70
2022-09-16T13:41:52.804Z,0.30
2022-09-16T13:46:54.927Z,0.57
2022-09-16T13:51:56.897Z,0.50
2022-09-16T13:57:21.750Z,0.30
2022-09-16T14:02:35.685Z,0.50
2022-09-16T14:07:58.274Z,0.40
2022-09-16T14:13:14.202Z,0.38
2022-09-16T14:18:20.756Z,0.40
2022-09-16T14:23:24.718Z,0.50
2022-09-16T14:28:28.483Z,0.60
2022-09-16T14:33:55.650Z,0.40
2022-09-16T14:39:14.155Z,0.60
2022-09-16T14:44:19.065Z,0.38
2022-09-16T14:49:22.093Z,0.32
2022-09-16T14:54:25.803Z,0.40
2022-09-16T14:59:42.030Z,0.50
2022-09-16T15:04:47.510Z,0.52
2022-09-16T15:10:00.221Z,0.25
2022-09-16T15:15:24.960Z,0.45
2022-09-16T15:20:31.840Z,0.50
2022-09-16T15:25:37.812Z,1.00
2022-09-16T15:30:49.111Z,0.88
2022-09-16T15:35:53.006Z,0.98
2022-09-16T15:41:03.236Z,0.80
2022-09-16T15:46:18.262Z,1.30
2022-09-16T15:51:44.963Z,0.80
2022-09-16T15:57:04.191Z,0.82
2022-09-16T16:02:24.436Z,1.80
2022-09-16T16:07:52.718Z,0.90
2022-09-16T16:12:55.579Z,0.90
2022-09-16T16:18:00.377Z,0.60
2022-09-16T16:23:02.387Z,0.98
2022-09-16T16:28:04.607Z,0.73
2022-09-16T16:33:09.216Z,0.52
2022-09-16T16:38:11.517Z,0.80
2022-09-16T16:43:13.356Z,0.90
2022-09-16T16:48:15.194Z,1.48
2022-09-16T16:53:16.990Z,1.10
2022-09-16T16:58:19.261Z,0.95
2022-09-16T17:03:22.764Z,1.15
2022-09-16T17:08:24.561Z,1.20
2022-09-16T17:13:26.348Z,1.23
2022-09-16T17:18:28.293Z,0.80
2022-09-16T17:23:30.401Z,1.00
2022-09-16T17:28:32.641Z,0.82
2022-09-16T17:33:34.474Z,0.95
2022-09-16T17:38:36.816Z,0.85
2022-09-16T17:43:39.663Z,0.93
2022-09-16T17:48:43.107Z,1.00
2022-09-16T17:53:46.177Z,2.03
2022-09-16T17:58:48.548Z,1.20
2022-09-16T18:03:52.822Z,1.15
2022-09-16T18:08:55.559Z,1.35
2022-09-16T18:14:00.138Z,1.65
2022-09-16T18:19:03.105Z,1.40
2022-09-16T18:24:11.346Z,1.40
2022-09-16T18:29:14.438Z,1.38
2022-09-16T18:34:17.919Z,1.42
2022-09-16T18:39:19.893Z,1.45
2022-09-16T18:44:26.272Z,1.40
2022-09-16T18:49:30.226Z,1.00
2022-09-16T18:54:33.521Z,1.05
2022-09-16T18:59:37.013Z,1.23
2022-09-16T19:04:43.047Z,1.08
2022-09-16T19:09:46.249Z,1.10
2022-09-16T19:14:48.410Z,1.27
2022-09-16T19:19:51.209Z,1.50
2022-09-16T19:24:54.467Z,1.30
2022-09-16T19:29:56.284Z,1.20
2022-09-16T19:34:58.070Z,1.30
2022-09-16T19:39:59.878Z,1.55
2022-09-16T19:45:01.867Z,1.20
2022-09-16T19:50:04.074Z,1.20
2022-09-16T19:55:06.485Z,1.00
2022-09-16T20:00:14.200Z,1.25
2022-09-16T20:05:16.007Z,2.25
2022-09-16T20:10:18.314Z,0.80
2022-09-16T20:15:20.102Z,0.85
2022-09-16T20:20:22.271Z,1.00
2022-09-16T20:25:24.041Z,1.38
2022-09-16T20:30:25.858Z,1.77
2022-09-16T20:35:27.814Z,1.20
2022-09-16T20:40:29.738Z,1.30
2022-09-16T20:45:31.780Z,1.30
2022-09-16T20:50:38.592Z,1.70
2022-09-16T20:55:40.440Z,1.63
2022-09-16T21:00:42.358Z,1.38
2022-09-16T21:05:44.161Z,1.60
2022-09-16T21:10:46.028Z,1.40
2022-09-16T21:15:58.716Z,1.30
2022-09-16T21:21:09.052Z,0.95
2022-09-16T21:31:16.172Z,1.50
2022-09-16T21:36:19.067Z,0.60
2022-09-16T21:41:22.452Z,0.85
2022-09-16T21:46:29.636Z,0.70
2022-09-16T21:51:35.472Z,1.08
2022-09-16T21:56:39.271Z,0.90
2022-09-16T22:01:41.157Z,0.93
2022-09-16T22:06:43.146Z,1.13
2022-09-16T22:11:45.049Z,1.17
2022-09-16T22:16:46.966Z,1.08
2022-09-16T22:21:51.105Z,1.10
2022-09-16T22:26:52.976Z,0.98
2022-09-16T22:31:54.766Z,1.10
2022-09-16T22:36:56.539Z,1.25
2022-09-16T22:41:58.306Z,1.30
2022-09-16T22:47:00.563Z,1.05
2022-09-16T22:52:02.735Z,1.30
2022-09-16T22:57:04.548Z,1.33
2022-09-16T23:02:06.485Z,1.50
2022-09-16T23:07:10.243Z,1.20
2022-09-16T23:12:15.996Z,1.45
2022-09-16T23:17:17.853Z,1.92
2022-09-16T23:22:19.652Z,1.63
2022-09-16T23:27:21.452Z,1.38
2022-09-16T23:32:23.243Z,1.52
2022-09-16T23:37:25.097Z,1.45
2022-09-16T23:42:27.646Z,1.45
2022-09-16T23:47:29.522Z,1.20
2022-09-16T23:52:31.393Z,1.00
2022-09-16T23:57:33.207Z,1.08
